Time;durP1;ratioP1;P1;durP2;ratioP2;P2;SDS_P1;SDS_P2;PMS_P1;PMS_P2;Temp;Humidity;BMP_temperature;BMP_pressure;BME280_temperature;BME280_humidity;BME280_pressure;Samples;Min_cycle;Max_cycle;Signal;HPM_P1;HPM_P2
2022/06/13 00:00:36;;;;;;;3.17;2.97;;;22.80;59.00;;;;;;20742;6779;117181;-88
2022/06/13 00:03:11;;;;;;;3.00;2.90;;;22.60;59.00;;;;;;20708;6794;119506;-89
2022/06/13 00:05:48;;;;;;;3.20;2.90;;;22.20;59.70;;;;;;20447;6816;308462;-89
2022/06/13 00:08:24;;;;;;;4.17;2.90;;;22.30;60.30;;;;;;20629;6775;276023;-89
2022/06/13 00:11:13;;;;;;;;;;;;;;;;;;;;;
2022/06/13 00:13:36;;;;;;;4.17;3.10;;;22.60;59.50;;;;;;20717;6846;117129;-89
2022/06/13 00:16:12;;;;;;;6.27;3.47;;;22.30;60.00;;;;;;20764;6780;117419;-89
2022/06/13 00:18:48;;;;;;;3.43;2.90;;;22.20;60.30;;;;;;20611;6775;296771;-88
2022/06/13 00:21:27;;;;;;;3.00;2.80;;;22.20;60.20;;;;;;20832;6775;117127;-89
2022/06/13 00:24:03;;;;;;;3.03;2.70;;;22.20;60.20;;;;;;20824;6780;117120;-89
2022/06/13 00:26:38;;;;;;;3.25;2.85;;;22.00;60.70;;;;;;20530;6775;311014;-89
2022/06/13 00:29:15;;;;;;;3.60;3.30;;;22.60;60.00;;;;;;20555;6779;307406;-89
2022/06/13 00:31:50;;;;;;;3.50;3.30;;;22.60;59.30;;;;;;20769;6779;116955;-89
2022/06/13 00:34:26;;;;;;;3.73;2.87;;;22.50;59.20;;;;;;20783;6779;122398;-89
2022/06/13 00:37:01;;;;;;;3.43;3.17;;;22.10;59.80;;;;;;20454;6779;283082;-89
2022/06/13 00:39:38;;;;;;;3.42;3.10;;;22.50;60.20;;;;;;20567;6779;307948;-89
2022/06/13 00:42:18;;;;;;;3.50;3.20;;;22.40;59.30;;;;;;20511;6796;307641;-89
2022/06/13 00:45:14;;;;;;;2.90;2.70;;;22.60;59.10;;;;;;20493;6790;282850;-89
2022/06/13 00:47:49;;;;;;;3.00;2.47;;;22.70;58.00;;;;;;20574;6795;119732;-89
2022/06/13 00:50:29;;;;;;;2.50;2.30;;;22.30;58.70;;;;;;20729;6792;117239;-89
2022/06/13 00:53:08;;;;;;;2.30;2.20;;;21.90;59.70;;;;;;20692;6807;120554;-89
2022/06/13 00:55:57;;;;;;;3.13;2.50;;;21.60;60.30;;;;;;20641;6829;117745;-89
2022/06/13 00:58:35;;;;;;;2.63;2.50;;;21.40;60.90;;;;;;20501;6795;312835;-88
2022/06/13 01:01:11;;;;;;;2.97;2.77;;;21.70;60.20;;;;;;20537;6780;309372;-89
2022/06/13 01:03:47;;;;;;;2.80;2.57;;;21.90;60.00;;;;;;20757;6780;117762;-89
2022/06/13 01:06:24;;;;;;;2.93;2.67;;;21.90;60.00;;;;;;20452;6802;281870;-89
2022/06/13 01:09:03;;;;;;;2.97;2.77;;;22.00;60.10;;;;;;20779;6772;122054;-89
2022/06/13 01:11:42;;;;;;;2.40;2.30;;;21.90;60.20;;;;;;20789;6772;120523;-89
2022/06/13 01:14:24;;;;;;;3.10;2.80;;;21.60;60.90;;;;;;20581;6772;336839;-89
2022/06/13 01:17:13;;;;;;;2.50;2.30;;;21.80;60.70;;;;;;20656;6772;117738;-89
2022/06/13 01:19:59;;;;;;;4.10;2.60;;;21.90;60.00;;;;;;20587;6772;310987;-89
2022/06/13 01:22:57;;;;;;;2.40;2.20;;;21.90;60.00;;;;;;20792;6772;117686;-90
2022/06/13 01:25:59;;;;;;;2.67;2.47;;;21.80;60.10;;;;;;20802;6772;116881;-89
2022/06/13 01:28:55;;;;;;;2.30;2.10;;;21.50;60.60;;;;;;20796;6772;117506;-88
2022/06/13 01:31:37;;;;;;;3.90;2.20;;;21.20;61.20;;;;;;20780;6778;117330;-89
2022/06/13 01:34:12;;;;;;;2.20;2.00;;;21.00;61.80;;;;;;20831;6763;117056;-89
2022/06/13 01:37:07;;;;;;;2.70;2.37;;;20.90;62.20;;;;;;20701;6763;119567;-89
2022/06/13 01:40:06;;;;;;;2.43;2.23;;;20.80;62.30;;;;;;20331;6819;281130;-89
2022/06/13 01:42:48;;;;;;;2.35;2.25;;;21.20;61.10;;;;;;20608;6763;308570;-89
2022/06/13 01:45:33;;;;;;;3.70;2.13;;;21.70;59.50;;;;;;20618;6763;279012;-89
2022/06/13 01:48:32;;;;;;;2.17;2.07;;;22.10;57.90;;;;;;20612;6834;117658;-89
2022/06/13 01:51:10;;;;;;;2.23;2.10;;;21.90;58.60;;;;;;20585;6763;308113;-89
2022/06/13 01:53:53;;;;;;;3.40;2.17;;;22.00;58.40;;;;;;20593;6819;307254;-89
2022/06/13 01:56:38;;;;;;;2.17;2.03;;;22.30;58.00;;;;;;20742;6763;118103;-89
2022/06/13 01:59:17;;;;;;;2.13;2.03;;;22.10;58.30;;;;;;20655;6819;117321;-89
2022/06/13 02:01:56;;;;;;;2.27;2.03;;;21.70;58.80;;;;;;20611;6763;279180;-88
2022/06/13 02:04:31;;;;;;;3.47;2.33;;;21.80;58.20;;;;;;20615;6763;310025;-93
2022/06/13 02:07:13;;;;;;;2.42;2.22;;;22.20;58.10;;;;;;20457;6763;310708;-89
2022/06/13 02:09:55;;;;;;;2.00;1.90;;;22.40;56.30;;;;;;20616;6763;307793;-88
2022/06/13 02:12:31;;;;;;;2.37;1.93;;;22.40;56.20;;;;;;20825;6763;117285;-89
2022/06/13 02:15:07;;;;;;;2.37;2.10;;;22.10;56.80;;;;;;20810;6763;117777;-90
2022/06/13 02:17:45;;;;;;;2.10;1.90;;;21.70;57.60;;;;;;20443;6763;285180;-89
2022/06/13 02:20:21;;;;;;;2.37;2.20;;;21.80;57.10;;;;;;20823;6763;124047;-90
2022/06/13 02:22:56;;;;;;;2.10;1.90;;;21.70;57.50;;;;;;20602;6763;310579;-88
2022/06/13 02:25:36;;;;;;;2.50;2.00;;;21.90;58.00;;;;;;20819;6763;122075;-88
2022/06/13 02:28:11;;;;;;;3.33;1.90;;;21.70;58.20;;;;;;20811;6763;117097;-89
2022/06/13 02:30:50;;;;;;;2.23;1.87;;;21.50;58.90;;;;;;20803;6763;123173;-89
2022/06/13 02:33:26;;;;;;;2.00;1.90;;;21.30;59.40;;;;;;20613;6763;281285;-89
2022/06/13 02:36:11;;;;;;;2.43;2.30;;;21.50;58.30;;;;;;20579;6763;280193;-89
2022/06/13 02:38:51;;;;;;;2.80;2.43;;;21.80;57.70;;;;;;20608;6763;277783;-90
2022/06/13 02:41:27;;;;;;;3.33;2.50;;;22.00;57.50;;;;;;20278;6834;278434;-89
2022/06/13 02:44:02;;;;;;;3.03;2.30;;;22.10;57.20;;;;;;20824;6763;117158;-90
2022/06/13 02:46:38;;;;;;;2.80;2.60;;;21.80;57.90;;;;;;20738;6763;120333;-90
2022/06/13 02:49:26;;;;;;;2.80;2.60;;;21.50;59.10;;;;;;20594;6819;311770;-91
2022/06/13 02:52:22;;;;;;;3.00;2.85;;;21.70;58.70;;;;;;20607;6763;311777;-89
2022/06/13 02:54:58;;;;;;;3.40;3.20;;;22.00;58.50;;;;;;20601;6763;280735;-88
2022/06/13 02:57:37;;;;;;;3.30;2.77;;;22.30;58.00;;;;;;20640;6763;117582;-89
2022/06/13 03:00:29;;;;;;;3.57;2.97;;;22.10;58.40;;;;;;20827;6763;117060;-91
2022/06/13 03:03:25;;;;;;;3.23;2.70;;;21.50;60.10;;;;;;20816;6763;119595;-89
2022/06/13 03:06:07;;;;;;;2.83;2.60;;;21.50;60.10;;;;;;20794;6763;117489;-90
2022/06/13 03:08:49;;;;;;;3.20;2.80;;;21.30;60.60;;;;;;20823;6763;117529;-89
2022/06/13 03:11:47;;;;;;;2.97;2.77;;;21.10;61.00;;;;;;20562;6819;313449;-89
2022/06/13 03:14:39;;;;;;;3.20;2.90;;;21.40;60.60;;;;;;20825;6763;117108;-89
2022/06/13 03:17:25;;;;;;;2.80;2.60;;;21.40;60.60;;;;;;20644;6763;117912;-89
2022/06/13 03:20:13;;;;;;;2.57;2.40;;;21.20;61.10;;;;;;20818;6763;117261;-91
2022/06/13 03:22:53;;;;;;;3.67;2.80;;;21.00;62.00;;;;;;20801;6763;117735;-89
2022/06/13 03:25:38;;;;;;;3.20;2.90;;;20.90;62.00;;;;;;20777;6778;117534;-90
2022/06/13 03:28:23;;;;;;;4.10;2.92;;;20.90;62.20;;;;;;20569;6778;278500;-89
2022/06/13 03:30:59;;;;;;;3.40;3.10;;;21.30;61.50;;;;;;20532;6778;340555;-89
2022/06/13 03:33:40;;;;;;;4.50;3.03;;;21.70;60.40;;;;;;20782;6778;117748;-90
2022/06/13 03:36:22;;;;;;;3.23;2.97;;;21.60;60.40;;;;;;20738;6778;120955;-89
2022/06/13 03:39:01;;;;;;;3.62;3.33;;;21.40;61.00;;;;;;20536;6834;338859;-90
2022/06/13 03:41:37;;;;;;;4.93;2.90;;;21.60;60.60;;;;;;20776;6778;117775;-91
2022/06/13 03:44:12;;;;;;;3.10;2.90;;;21.50;60.70;;;;;;20783;6778;117304;-89
2022/06/13 03:46:52;;;;;;;2.63;2.43;;;21.30;61.40;;;;;;20416;6793;310627;-88
2022/06/13 03:49:26;;;;;;;3.57;3.23;;;21.50;61.30;;;;;;20727;6792;117937;-88
2022/06/13 03:52:02;;;;;;;3.10;2.90;;;21.60;61.50;;;;;;20787;6777;117349;-88
2022/06/13 03:54:51;;;;;;;3.72;2.60;;;21.70;61.70;;;;;;20525;6792;281134;-92
2022/06/13 03:57:26;;;;;;;2.50;2.40;;;22.20;59.30;;;;;;20407;6793;280893;-88
2022/06/13 04:00:12;;;;;;;2.67;2.33;;;22.90;57.50;;;;;;20825;6763;123032;-89
2022/06/13 04:02:47;;;;;;;2.83;2.50;;;23.00;57.40;;;;;;20549;6778;309912;-89
2022/06/13 04:05:30;;;;;;;3.37;2.20;;;23.30;54.10;;;;;;20781;6778;117877;-89
2022/06/13 04:08:06;;;;;;;2.33;2.00;;;23.00;55.20;;;;;;20570;6849;117683;-88
2022/06/13 04:11:09;;;;;;;2.83;2.37;;;22.90;55.10;;;;;;20781;6778;117356;-89
2022/06/13 04:13:47;;;;;;;4.03;2.37;;;22.70;55.30;;;;;;20830;6763;117016;-91
2022/06/13 04:16:26;;;;;;;3.37;2.33;;;22.50;55.60;;;;;;20764;6763;117287;-90
2022/06/13 04:19:04;;;;;;;3.50;2.40;;;22.30;55.50;;;;;;20817;6763;119106;-89
2022/06/13 04:21:47;;;;;;;2.97;2.50;;;22.30;52.60;;;;;;20648;6763;278122;-91
2022/06/13 04:24:43;;;;;;;4.40;2.78;;;22.70;51.60;;;;;;20572;6834;319823;-88
2022/06/13 04:27:22;;;;;;;2.60;2.33;;;22.70;51.60;;;;;;20665;6778;118546;-90
2022/06/13 04:30:09;;;;;;;2.80;2.47;;;22.50;52.40;;;;;;20608;6763;336365;-88
2022/06/13 04:33:06;;;;;;;5.03;2.90;;;22.60;51.90;;;;;;20817;6763;117303;-89
2022/06/13 04:35:42;;;;;;;3.20;2.60;;;22.50;52.50;;;;;;20607;6763;338292;-89
2022/06/13 04:38:17;;;;;;;2.70;2.50;;;22.70;51.50;;;;;;20835;6763;117255;-94
2022/06/13 04:40:59;;;;;;;3.63;2.37;;;22.60;52.20;;;;;;20597;6763;308283;-89
2022/06/13 04:43:36;;;;;;;2.53;1.97;;;22.80;51.40;;;;;;20794;6778;118408;-89
2022/06/13 04:46:12;;;;;;;3.43;2.40;;;22.80;51.70;;;;;;20745;6778;117326;-91
2022/06/13 04:48:47;;;;;;;3.40;2.50;;;22.60;52.10;;;;;;20808;6763;118165;-89
2022/06/13 04:51:30;;;;;;;3.10;2.80;;;22.50;52.40;;;;;;20838;6778;119867;-92
2022/06/13 04:54:12;;;;;;;4.37;2.47;;;22.40;52.80;;;;;;20828;6778;117227;-95
2022/06/13 04:56:48;;;;;;;2.40;2.20;;;22.40;52.90;;;;;;20738;6778;117635;-90
2022/06/13 04:59:23;;;;;;;2.93;2.17;;;22.40;52.90;;;;;;20659;6778;277136;-93
2022/06/13 05:01:59;;;;;;;4.37;2.30;;;22.70;50.30;;;;;;20803;6791;117671;-94
2022/06/13 05:04:35;;;;;;;3.60;2.40;;;22.90;51.00;;;;;;20625;6791;277481;-96
2022/06/13 05:07:13;;;;;;;3.42;2.30;;;23.20;49.20;;;;;;20492;6791;340136;-95
2022/06/13 05:09:56;;;;;;;7.30;2.50;;;23.50;48.40;;;;;;20859;6763;117203;-89
2022/06/13 05:12:28;;;;;;;4.13;2.70;;;23.50;48.40;;;;;;20629;6763;308929;-89
2022/06/13 05:15:24;;;;;;;3.97;2.72;;;24.00;46.40;;;;;;20559;6778;294965;-93
2022/06/13 05:18:07;;;;;;;4.37;2.63;;;23.90;46.30;;;;;;20406;6778;309633;-90
2022/06/13 05:21:02;;;;;;;4.17;2.53;;;24.10;45.90;;;;;;20823;6763;118221;-92
2022/06/13 05:23:57;;;;;;;6.03;2.50;;;23.90;47.00;;;;;;20729;6819;120153;-91
2022/06/13 05:26:32;;;;;;;4.70;2.60;;;23.40;47.90;;;;;;20761;6763;117721;-90
2022/06/13 05:29:08;;;;;;;4.23;2.63;;;22.90;48.80;;;;;;20552;6778;308248;-89
2022/06/13 05:31:44;;;;;;;4.75;2.67;;;23.10;47.10;;;;;;20568;6778;279527;-88
2022/06/13 05:34:29;;;;;;;3.40;2.50;;;23.50;46.70;;;;;;20562;6778;308354;-90
2022/06/13 05:37:06;;;;;;;3.47;2.33;;;23.60;46.90;;;;;;20629;6778;117734;-90
2022/06/13 05:39:41;;;;;;;3.73;2.57;;;23.60;46.80;;;;;;20620;6763;282514;-89
2022/06/13 05:42:16;;;;;;;4.50;2.77;;;23.80;45.40;;;;;;20751;6834;117433;-89
2022/06/13 05:44:53;;;;;;;3.03;2.40;;;23.60;46.50;;;;;;20769;6778;117360;-93
2022/06/13 05:47:29;;;;;;;2.87;2.57;;;23.40;47.20;;;;;;20539;6763;120325;-92
2022/06/13 05:50:04;;;;;;;3.57;2.37;;;23.30;47.80;;;;;;20786;6778;117659;-89
2022/06/13 05:52:41;;;;;;;3.47;2.40;;;23.20;48.20;;;;;;20825;6763;117341;-88
2022/06/13 05:55:15;;;;;;;3.20;2.47;;;23.30;48.70;;;;;;20818;6763;118261;-90
2022/06/13 05:57:51;;;;;;;5.03;3.20;;;23.30;48.50;;;;;;20411;6763;282607;-92
2022/06/13 06:00:28;;;;;;;2.83;2.53;;;23.70;45.70;;;;;;20575;6763;307242;-92
2022/06/13 06:03:03;;;;;;;2.60;2.40;;;24.20;44.20;;;;;;20812;6763;117833;-92
2022/06/13 06:05:39;;;;;;;5.10;2.83;;;24.20;45.60;;;;;;20618;6763;307832;-89
2022/06/13 06:08:21;;;;;;;3.73;2.97;;;24.50;44.30;;;;;;20838;6763;119577;-88
2022/06/13 06:10:57;;;;;;;2.90;2.50;;;24.60;45.30;;;;;;20813;6763;121483;-89
2022/06/13 06:13:35;;;;;;;7.93;3.00;;;24.70;46.00;;;;;;20844;6763;117310;-93
2022/06/13 06:16:08;;;;;;;3.37;2.60;;;25.00;46.40;;;;;;20587;6763;313155;-89
2022/06/13 06:18:43;;;;;;;3.30;2.50;;;25.90;42.30;;;;;;20843;6763;117734;-90
2022/06/13 06:21:20;;;;;;;4.37;2.50;;;26.60;43.50;;;;;;20816;6763;117090;-91
2022/06/13 06:23:57;;;;;;;4.27;3.00;;;27.00;43.40;;;;;;20625;6763;298038;-92
2022/06/13 06:26:33;;;;;;;6.70;3.00;;;27.80;38.50;;;;;;20741;6763;117749;-92
2022/06/13 06:29:11;;;;;;;6.07;2.80;;;28.20;39.80;;;;;;20816;6763;117375;-89
2022/06/13 06:31:52;;;;;;;3.53;2.80;;;28.30;40.50;;;;;;20821;6763;117304;-91
2022/06/13 06:34:28;;;;;;;5.20;3.07;;;28.20;40.30;;;;;;20799;6819;117759;-89
2022/06/13 06:37:04;;;;;;;5.67;3.23;;;28.70;36.10;;;;;;20478;6763;280481;-90
2022/06/13 06:39:39;;;;;;;4.30;3.13;;;28.70;36.10;;;;;;20622;6763;278082;-91
2022/06/13 06:42:15;;;;;;;4.83;3.20;;;29.30;35.00;;;;;;20616;6763;309639;-91
2022/06/13 06:44:50;;;;;;;4.03;3.03;;;29.80;34.20;;;;;;20601;6763;277804;-91
2022/06/13 06:47:26;;;;;;;5.27;3.00;;;30.10;33.50;;;;;;20666;6763;119798;-92
2022/06/13 06:50:03;;;;;;;4.00;2.90;;;29.90;35.50;;;;;;20846;6763;70015;-91
2022/06/13 06:52:38;;;;;;;4.37;2.97;;;29.40;37.10;;;;;;20785;6763;117150;-91
2022/06/13 07:01:04;;;;;;;4.60;2.80;;;28.80;38.50;;;;;;20600;6763;278845;-91
2022/06/13 07:03:42;;;;;;;5.67;3.10;;;29.40;35.60;;;;;;20834;6763;117633;-89
2022/06/13 07:06:17;;;;;;;5.27;2.90;;;29.40;35.60;;;;;;20559;6763;310275;-91
2022/06/13 07:08:53;;;;;;;6.77;2.77;;;29.70;34.00;;;;;;20813;6763;117601;-91
2022/06/13 07:14:25;;;;;;;3.43;2.33;;;29.80;32.10;;;;;;20827;6763;117632;-90
2022/06/13 07:17:00;;;;;;;5.13;2.70;;;29.50;33.80;;;;;;20470;6763;311435;-89
2022/06/13 07:19:36;;;;;;;4.07;2.80;;;29.50;32.00;;;;;;20817;6763;117163;-90
2022/06/13 07:22:14;;;;;;;3.80;2.87;;;29.30;33.60;;;;;;20619;6763;280517;-91
2022/06/13 07:24:51;;;;;;;4.07;3.10;;;29.30;32.90;;;;;;20608;6763;307870;-91
2022/06/13 07:27:25;;;;;;;4.47;2.67;;;29.40;32.40;;;;;;20675;6763;117755;-92
2022/06/13 07:30:11;;;;;;;;;;;;;;;;;;;;;
2022/06/13 07:32:37;;;;;;;5.73;3.27;;;28.40;33.70;;;;;;20514;6763;278230;-92
2022/06/13 07:35:13;;;;;;;5.53;2.87;;;28.30;33.60;;;;;;20602;6763;309662;-92
2022/06/13 07:40:47;;;;;;;5.80;3.30;;;28.10;34.50;;;;;;20562;6778;308404;-92
2022/06/13 07:43:27;;;;;;;6.80;3.40;;;28.10;33.50;;;;;;20564;6834;279664;-92
2022/06/13 07:46:02;;;;;;;4.63;2.70;;;28.10;33.50;;;;;;20755;6778;117334;-93
2022/06/13 07:48:38;;;;;;;7.73;2.80;;;27.80;35.10;;;;;;20714;6778;117743;-93
2022/06/13 07:51:15;;;;;;;4.50;2.70;;;27.50;36.40;;;;;;20776;6778;117305;-92
2022/06/13 07:53:50;;;;;;;5.60;2.92;;;27.10;36.50;;;;;;20583;6778;307877;-90
2022/06/13 07:56:26;;;;;;;3.60;2.50;;;27.40;35.20;;;;;;20737;6778;117325;-90
2022/06/13 07:59:02;;;;;;;5.90;2.80;;;27.40;36.00;;;;;;20813;6763;119656;-93
2022/06/13 08:01:45;;;;;;;3.73;2.60;;;27.30;36.50;;;;;;20566;6778;310937;-91
2022/06/13 08:04:21;;;;;;;4.67;2.30;;;27.60;34.80;;;;;;20626;6834;117761;-91
2022/06/13 08:06:56;;;;;;;5.93;2.80;;;27.60;35.40;;;;;;20687;6778;117767;-92
2022/06/13 08:09:33;;;;;;;3.10;2.77;;;27.40;36.00;;;;;;20791;6778;119019;-92
2022/06/13 08:12:09;;;;;;;3.07;2.20;;;27.10;36.80;;;;;;20788;6778;119402;-91
2022/06/13 08:14:48;;;;;;;4.32;2.97;;;27.10;36.70;;;;;;20571;6778;311437;-90
2022/06/13 08:17:34;;;;;;;;;;;;;;;;;;;;;
2022/06/13 08:20:00;;;;;;;3.70;2.90;;;27.60;35.30;;;;;;20606;6763;304931;-90
2022/06/13 08:22:43;;;;;;;4.87;2.83;;;27.80;34.80;;;;;;20583;6778;278973;-91
2022/06/13 08:25:18;;;;;;;4.73;3.10;;;28.20;33.60;;;;;;20772;6778;116972;-92
2022/06/13 08:27:54;;;;;;;4.47;2.63;;;28.20;34.70;;;;;;20416;6778;280489;-91
2022/06/13 08:30:29;;;;;;;4.80;2.70;;;28.40;33.30;;;;;;20568;6778;278896;-91
2022/06/13 08:33:06;;;;;;;5.73;3.20;;;28.60;32.80;;;;;;20561;6778;310691;-91
2022/06/13 08:35:42;;;;;;;5.60;3.00;;;28.60;32.30;;;;;;20573;6777;308302;-92
2022/06/13 08:38:19;;;;;;;5.33;3.10;;;28.60;33.10;;;;;;20584;6763;278398;-92
2022/06/13 08:41:07;;;;;;;3.83;2.90;;;28.60;32.30;;;;;;20562;6778;279503;-91
2022/06/13 08:44:06;;;;;;;4.68;3.20;;;28.60;32.70;;;;;;20629;6763;306994;-91
2022/06/13 08:46:48;;;;;;;4.77;3.20;;;28.60;33.20;;;;;;20743;6763;117277;-91
2022/06/13 08:49:45;;;;;;;4.40;2.90;;;27.90;35.00;;;;;;20830;6819;124993;-91
2022/06/13 08:52:27;;;;;;;6.20;2.97;;;27.90;35.00;;;;;;20631;6763;308127;-91
2022/06/13 08:55:12;;;;;;;4.20;2.85;;;27.80;33.10;;;;;;20605;6763;337362;-92
2022/06/13 08:57:58;;;;;;;4.65;2.70;;;28.20;33.60;;;;;;20437;6763;310451;-95
2022/06/13 09:00:34;;;;;;;5.13;3.03;;;28.20;33.60;;;;;;20816;6763;117787;-91
2022/06/13 09:03:10;;;;;;;4.37;2.57;;;28.10;34.30;;;;;;20815;6763;117343;-91
2022/06/13 09:05:55;;;;;;;4.87;2.77;;;27.90;34.60;;;;;;20835;6819;117688;-91
2022/06/13 09:08:31;;;;;;;6.07;2.57;;;27.80;35.00;;;;;;20853;6763;117232;-91
2022/06/13 09:11:10;;;;;;;5.93;2.80;;;27.80;35.50;;;;;;20818;6763;117319;-93
2022/06/13 09:13:58;;;;;;;6.57;2.90;;;27.70;35.40;;;;;;20839;6763;117091;-94
2022/06/13 09:16:34;;;;;;;4.83;3.10;;;28.10;33.00;;;;;;20213;6834;283387;-90
2022/06/13 09:19:20;;;;;;;5.67;2.90;;;28.10;33.00;;;;;;20604;6763;307995;-90
2022/06/13 09:21:56;;;;;;;5.30;2.67;;;28.50;32.20;;;;;;20640;6819;117332;-91
2022/06/13 09:24:31;;;;;;;3.37;2.60;;;28.60;33.30;;;;;;20846;6763;117760;-91
2022/06/13 09:27:13;;;;;;;3.93;2.80;;;28.50;33.50;;;;;;20486;6763;280437;-90
2022/06/13 09:29:52;;;;;;;3.90;2.60;;;28.80;31.80;;;;;;20646;6763;278049;-91
2022/06/13 09:32:27;;;;;;;4.20;2.87;;;29.20;31.60;;;;;;20607;6778;307592;-90
2022/06/13 09:35:03;;;;;;;3.87;2.60;;;29.40;31.10;;;;;;20843;6763;118992;-91
2022/06/13 09:37:38;;;;;;;4.03;2.80;;;29.20;32.10;;;;;;20506;6763;279475;-94
2022/06/13 09:40:15;;;;;;;4.23;2.70;;;29.00;31.60;;;;;;20851;6763;117667;-94
2022/06/13 09:43:11;;;;;;;4.73;2.70;;;29.10;30.30;;;;;;20553;6778;311441;-91
2022/06/13 09:46:10;;;;;;;4.77;2.63;;;29.10;30.20;;;;;;20765;6778;116320;-91
2022/06/13 09:49:09;;;;;;;5.63;2.60;;;28.80;31.60;;;;;;20822;6763;118663;-90
2022/06/13 09:52:11;;;;;;;3.47;2.40;;;28.40;33.30;;;;;;20829;6763;117458;-90
2022/06/13 09:54:46;;;;;;;3.63;2.67;;;28.20;33.60;;;;;;20563;6778;308257;-91
2022/06/13 09:57:45;;;;;;;5.10;2.50;;;28.50;31.10;;;;;;20449;6778;312012;-89
2022/06/13 10:00:34;;;;;;;3.15;2.53;;;28.90;30.60;;;;;;20516;6791;338479;-90
2022/06/13 10:03:18;;;;;;;5.03;2.50;;;29.20;30.10;;;;;;20764;6779;120990;-91
2022/06/13 10:05:48;;;;;;;4.23;2.40;;;28.90;31.00;;;;;;20586;6771;306883;-91
2022/06/13 10:08:44;;;;;;;4.70;2.67;;;28.90;28.90;;;;;;20552;6786;281006;-91
2022/06/13 10:11:22;;;;;;;4.53;2.63;;;28.90;28.90;;;;;;20442;6843;117883;-91
2022/06/13 10:14:24;;;;;;;4.12;2.72;;;28.50;30.20;;;;;;20551;6786;307746;-89
2022/06/13 10:17:23;;;;;;;3.20;2.20;;;28.30;29.90;;;;;;20472;6771;294814;-91
2022/06/13 10:20:22;;;;;;;4.50;2.40;;;28.40;30.30;;;;;;20593;6771;308152;-90
2022/06/13 10:23:31;;;;;;;5.50;2.40;;;28.40;31.20;;;;;;20784;6772;122711;-90
2022/06/13 10:26:10;;;;;;;4.53;2.60;;;28.40;31.20;;;;;;20766;6772;117273;-90
2022/06/13 10:29:00;;;;;;;3.13;2.50;;;28.10;31.60;;;;;;20341;6828;307471;-90
2022/06/13 10:31:43;;;;;;;3.37;2.30;;;28.20;30.30;;;;;;20535;6786;279300;-91
2022/06/13 10:34:49;;;;;;;2.80;2.40;;;28.90;29.40;;;;;;20545;6786;278752;-91
2022/06/13 10:37:46;;;;;;;4.07;2.60;;;29.10;29.00;;;;;;20410;6786;310344;-92
2022/06/13 10:40:22;;;;;;;2.97;2.13;;;29.00;29.10;;;;;;20735;6789;118029;-92
2022/06/13 10:42:57;;;;;;;4.57;2.37;;;28.60;30.00;;;;;;20754;6778;118317;-91
2022/06/13 10:45:33;;;;;;;3.55;2.60;;;28.20;31.10;;;;;;20563;6778;339811;-91
2022/06/13 10:48:08;;;;;;;2.80;2.47;;;28.30;30.10;;;;;;20558;6849;118282;-91
2022/06/13 10:50:48;;;;;;;3.80;2.33;;;28.20;31.20;;;;;;20773;6778;117814;-91
2022/06/13 10:53:33;;;;;;;2.30;2.10;;;28.00;32.10;;;;;;20834;6763;116950;-91
2022/06/13 10:56:05;;;;;;;2.67;2.28;;;27.90;32.50;;;;;;20561;6763;343052;-92
2022/06/13 10:58:48;;;;;;;2.30;2.10;;;28.10;30.00;;;;;;20830;6763;117055;-92
2022/06/13 11:01:28;;;;;;;2.77;2.20;;;28.20;31.50;;;;;;20614;6763;278836;-90
2022/06/13 11:04:05;;;;;;;3.97;2.30;;;28.50;30.90;;;;;;20835;6763;117188;-93
2022/06/13 11:06:47;;;;;;;2.20;2.00;;;28.60;31.50;;;;;;20482;6819;286849;-91
2022/06/13 11:09:49;;;;;;;5.03;2.30;;;28.70;30.30;;;;;;20554;6763;285656;-91
2022/06/13 11:12:23;;;;;;;4.12;2.17;;;28.80;29.50;;;;;;20607;6763;325979;-88
2022/06/13 11:23:46;;;;;;;3.23;1.73;;;28.30;32.00;;;;;;20816;6763;118688;-90
2022/06/13 11:29:18;;;;;;;2.60;1.90;;;28.30;32.40;;;;;;20593;6763;308654;-89
2022/06/13 11:31:56;;;;;;;1.90;1.70;;;28.70;30.60;;;;;;20781;6778;117371;-89
2022/06/13 11:34:32;;;;;;;2.40;2.10;;;28.70;31.10;;;;;;20565;6778;310213;-90
2022/06/13 11:37:22;;;;;;;2.13;1.60;;;28.90;29.80;;;;;;20493;6763;305876;-91
2022/06/13 11:39:56;;;;;;;2.27;1.67;;;29.10;29.70;;;;;;20781;6778;119257;-91
2022/06/13 11:42:33;;;;;;;2.60;1.90;;;29.10;30.80;;;;;;20779;6778;117745;-91
2022/06/13 11:45:07;;;;;;;2.70;2.00;;;29.10;30.60;;;;;;20810;6763;117592;-92
2022/06/13 11:47:50;;;;;;;3.10;2.20;;;29.00;31.20;;;;;;20449;6819;309740;-92
2022/06/13 11:50:36;;;;;;;;;;;;;;;;;;;;;
2022/06/13 11:55:57;;;;;;;2.20;2.00;;;30.10;28.10;;;;;;20768;6778;117317;-93
2022/06/13 11:58:33;;;;;;;2.97;2.20;;;29.80;28.90;;;;;;20828;6763;117348;-92
2022/06/13 12:01:22;;;;;;;2.80;1.77;;;29.30;29.50;;;;;;20759;6778;117231;-93
2022/06/13 12:03:57;;;;;;;3.93;1.90;;;28.80;29.80;;;;;;20575;6778;280895;-90
2022/06/13 12:06:42;;;;;;;2.17;1.90;;;29.00;28.50;;;;;;20541;6763;340924;-89
2022/06/13 12:09:31;;;;;;;2.90;1.80;;;29.00;28.70;;;;;;20759;6777;122599;-90
2022/06/13 12:12:05;;;;;;;3.50;1.90;;;29.00;29.50;;;;;;20765;6777;117143;-90
2022/06/13 12:14:41;;;;;;;2.70;1.90;;;28.90;30.00;;;;;;20571;6778;310014;-90
2022/06/13 12:17:26;;;;;;;1.63;1.53;;;29.00;29.00;;;;;;20603;6834;120236;-90
2022/06/13 12:20:09;;;;;;;2.83;1.80;;;29.30;28.20;;;;;;20562;6776;337205;-90
2022/06/13 12:22:48;;;;;;;1.63;1.53;;;29.10;28.80;;;;;;20735;6793;122940;-92
2022/06/13 12:25:50;;;;;;;2.17;1.97;;;29.10;28.80;;;;;;20464;6793;311628;-92
2022/06/13 12:28:26;;;;;;;3.03;2.00;;;29.40;28.60;;;;;;20583;6778;282078;-91
2022/06/13 12:31:09;;;;;;;4.73;1.97;;;29.40;28.80;;;;;;20717;6793;129165;-91
2022/06/13 12:33:54;;;;;;;3.73;2.00;;;29.30;29.20;;;;;;20694;6810;117780;-90
2022/06/13 12:36:33;;;;;;;3.90;1.70;;;29.10;29.80;;;;;;20298;6842;123187;-89
2022/06/13 12:39:19;;;;;;;2.00;1.80;;;29.00;30.00;;;;;;20454;6813;307171;-89
2022/06/13 12:42:14;;;;;;;2.37;1.70;;;29.30;29.50;;;;;;20685;6811;117732;-91
2022/06/13 12:45:26;;;;;;;3.40;1.80;;;29.30;30.00;;;;;;20686;6853;122499;-90
2022/06/13 12:48:12;;;;;;;2.17;1.60;;;29.10;30.10;;;;;;20551;6810;117653;-92
2022/06/13 12:51:10;;;;;;;2.63;1.70;;;28.90;30.60;;;;;;20772;6793;117777;-92
2022/06/13 12:54:26;;;;;;;3.23;1.80;;;28.80;30.70;;;;;;20739;6793;120249;-91
2022/06/13 12:57:38;;;;;;;2.27;1.60;;;28.60;30.00;;;;;;20577;6808;118556;-91
2022/06/13 13:00:14;;;;;;;3.20;1.67;;;28.40;29.80;;;;;;20759;6795;116700;-91
2022/06/13 13:03:21;;;;;;;1.80;1.70;;;28.00;30.00;;;;;;20754;6832;120747;-90
2022/06/13 13:06:23;;;;;;;2.47;1.83;;;27.80;30.80;;;;;;19762;7101;121119;-92
2022/06/13 13:09:02;;;;;;;2.20;2.00;;;27.70;31.40;;;;;;19576;7184;120445;-91
2022/06/13 13:11:44;;;;;;;2.00;1.73;;;27.70;31.70;;;;;;20361;6855;117892;-91
2022/06/13 13:14:33;;;;;;;2.70;1.60;;;27.80;32.20;;;;;;20790;6777;117816;-91
2022/06/13 13:17:35;;;;;;;2.70;1.85;;;27.90;29.70;;;;;;20419;6828;312261;-91
2022/06/13 13:20:14;;;;;;;1.87;1.77;;;27.90;29.70;;;;;;20652;6848;117231;-89
2022/06/13 13:23:06;;;;;;;3.37;1.80;;;27.80;30.20;;;;;;20730;6781;118550;-89
2022/06/13 13:25:50;;;;;;;2.10;1.90;;;27.70;30.30;;;;;;19400;7171;305260;-92
2022/06/13 13:28:35;;;;;;;2.50;1.80;;;27.90;29.10;;;;;;19575;7188;124478;-91
2022/06/13 13:31:25;;;;;;;2.10;1.87;;;27.90;29.60;;;;;;19572;7181;121731;-91
2022/06/13 13:34:18;;;;;;;3.67;1.90;;;27.70;30.00;;;;;;19361;6865;297412;-92
2022/06/13 13:37:02;;;;;;;3.13;2.03;;;27.80;28.10;;;;;;20680;6765;119690;-93
2022/06/13 13:39:38;;;;;;;2.03;1.70;;;27.50;29.90;;;;;;20802;6818;123238;-91
2022/06/13 13:42:34;;;;;;;3.00;1.77;;;27.50;29.70;;;;;;20381;6834;312777;-91
2022/06/13 13:45:29;;;;;;;2.17;1.87;;;27.70;28.50;;;;;;20780;6777;116993;-92
2022/06/13 13:48:24;;;;;;;2.47;1.70;;;27.80;29.60;;;;;;20405;6834;117697;-92
2022/06/13 13:50:53;;;;;;;2.03;1.80;;;27.70;30.40;;;;;;20623;6866;149844;-92
2022/06/13 13:53:29;;;;;;;2.07;1.90;;;27.60;30.90;;;;;;20498;6821;310131;-92
2022/06/13 13:56:14;;;;;;;;;;;;;;;;;;;;;
2022/06/13 13:58:40;;;;;;;3.08;1.67;;;28.50;27.60;;;;;;20493;6821;334340;-90
2022/06/13 14:01:36;;;;;;;3.13;1.93;;;28.50;28.00;;;;;;20693;6851;66632;-92
2022/06/13 14:04:15;;;;;;;2.23;1.87;;;28.30;28.60;;;;;;20684;6852;117426;-93
2022/06/13 14:07:21;;;;;;;3.77;1.70;;;27.90;29.20;;;;;;19824;6949;119195;-92
2022/06/13 14:09:57;;;;;;;2.63;1.63;;;27.60;29.70;;;;;;19766;6826;120042;-91
2022/06/13 14:12:34;;;;;;;1.70;1.60;;;27.00;30.70;;;;;;20841;6768;117675;-90
2022/06/13 14:15:09;;;;;;;3.22;1.85;;;27.00;30.00;;;;;;20565;6817;307666;-91
2022/06/13 14:17:48;;;;;;;1.50;1.23;;;27.10;28.40;;;;;;20702;6768;117363;-91
2022/06/13 14:20:27;;;;;;;1.73;1.63;;;27.00;29.60;;;;;;20840;6768;118265;-90
2022/06/13 14:23:02;;;;;;;1.70;1.60;;;26.80;30.10;;;;;;20519;6783;279452;-91